Time;durP1;ratioP1;P1;durP2;ratioP2;P2;SDS_P1;SDS_P2;PMS_P1;PMS_P2;Temp;Humidity;BMP_temperature;BMP_pressure;BME280_temperature;BME280_humidity;BME280_pressure;Samples;Min_cycle;Max_cycle;Signal;HPM_P1;HPM_P2
2023/10/26 00:00:37;;;;;;;3.22;1.35;;;;;;;12.85;78.83;99787.31;5018519;28;20508;-80
2023/10/26 00:03:03;;;;;;;0.10;0.10;;;;;;;12.79;78.80;99777.81;5017519;28;20029;-79
2023/10/26 00:05:29;;;;;;;0.40;0.40;;;;;;;12.76;78.91;99777.94;5011319;28;20068;-80
2023/10/26 00:07:55;;;;;;;5.18;2.28;;;;;;;12.73;78.78;99775.44;5013995;28;20132;-79
2023/10/26 00:10:22;;;;;;;0.20;0.20;;;;;;;12.69;78.65;99781.84;5002633;28;20026;-79
2023/10/26 00:12:48;;;;;;;0.10;0.10;;;;;;;12.65;79.00;99774.91;5013114;28;20444;-79
2023/10/26 00:15:14;;;;;;;0.25;0.25;;;;;;;12.59;78.95;99787.56;5011538;28;20500;-79
2023/10/26 00:17:40;;;;;;;0.20;0.20;;;;;;;12.55;78.50;99791.28;5013822;28;20030;-79
2023/10/26 00:20:07;;;;;;;0.20;0.20;;;;;;;12.49;78.41;99786.25;5008255;28;20034;-79
2023/10/26 00:22:34;;;;;;;0.65;0.57;;;;;;;12.50;78.53;99789.75;5018311;28;20487;-79
2023/10/26 00:25:00;;;;;;;0.10;0.10;;;;;;;12.48;78.33;99787.19;5007043;28;20031;-80
2023/10/26 00:27:26;;;;;;;0.65;0.65;;;;;;;12.45;78.35;99800.63;5033501;28;20055;-80
2023/10/26 00:29:52;;;;;;;0.10;0.10;;;;;;;12.43;79.02;99800.66;5009511;28;20039;-79
2023/10/26 00:32:18;;;;;;;0.10;0.10;;;;;;;12.44;78.96;99810.34;5007751;28;20037;-80
2023/10/26 00:34:44;;;;;;;0.20;0.20;;;;;;;12.42;78.93;99812.25;5019227;28;20030;-80
2023/10/26 00:37:11;;;;;;;0.20;0.20;;;;;;;12.42;78.75;99806.94;5017864;28;20506;-82
2023/10/26 00:39:37;;;;;;;0.57;0.57;;;;;;;12.45;79.17;99813.91;5015370;28;20038;-81
2023/10/26 00:42:03;;;;;;;0.68;0.68;;;;;;;12.47;79.13;99806.69;5004852;28;20053;-80
2023/10/26 00:44:29;;;;;;;0.20;0.20;;;;;;;12.49;78.64;99802.19;5013608;28;20087;-80
2023/10/26 00:46:55;;;;;;;0.43;0.43;;;;;;;12.51;78.74;99807.44;5028405;28;20033;-80
2023/10/26 00:49:22;;;;;;;0.10;0.10;;;;;;;12.51;78.71;99805.66;5035230;28;20037;-80
2023/10/26 00:51:51;;;;;;;0.40;0.40;;;;;;;12.50;78.84;99800.38;5006243;28;20132;-79
2023/10/26 00:54:20;;;;;;;0.20;0.20;;;;;;;12.46;78.65;99800.53;5017130;28;20037;-80
2023/10/26 00:56:48;;;;;;;0.20;0.20;;;;;;;12.43;79.08;99802.47;5001356;28;20034;-81
2023/10/26 00:59:16;;;;;;;0.10;0.10;;;;;;;12.40;79.16;99813.22;5005084;28;20052;-81
2023/10/26 01:01:46;;;;;;;0.35;0.35;;;;;;;12.39;79.34;99816.81;5013732;28;20034;-84
2023/10/26 01:04:14;;;;;;;0.20;0.20;;;;;;;12.36;78.98;99809.84;5017019;28;20654;-82
2023/10/26 01:06:41;;;;;;;0.10;0.10;;;;;;;12.35;79.25;99808.13;5010568;28;20057;-83
2023/10/26 01:09:08;;;;;;;0.73;0.73;;;;;;;12.34;78.76;99808.19;5026703;28;20575;-82
2023/10/26 01:11:37;;;;;;;0.50;0.50;;;;;;;12.30;78.50;99813.63;5033656;28;20117;-82
2023/10/26 01:14:04;;;;;;;0.32;0.32;;;;;;;12.28;79.28;99810.16;5016278;28;20041;-83
2023/10/26 01:16:30;;;;;;;0.10;0.10;;;;;;;12.24;78.29;99811.25;5015914;28;20035;-81
2023/10/26 01:19:01;;;;;;;0.10;0.10;;;;;;;12.22;78.62;99802.47;5007746;28;20083;-82
2023/10/26 01:21:29;;;;;;;0.65;0.65;;;;;;;12.15;78.33;99798.38;5004868;28;20546;-82
2023/10/26 01:23:55;;;;;;;0.10;0.10;;;;;;;12.10;78.30;99805.66;5045700;28;20108;-81
2023/10/26 01:26:22;;;;;;;0.10;0.10;;;;;;;12.03;78.88;99810.38;5010242;28;20040;-82
2023/10/26 01:28:48;;;;;;;0.10;0.10;;;;;;;11.96;78.45;99804.47;5011033;28;20135;-82
2023/10/26 01:31:18;;;;;;;1.23;0.70;;;;;;;11.91;78.50;99811.75;5037699;28;20027;-82
2023/10/26 01:33:45;;;;;;;0.55;0.55;;;;;;;11.81;78.37;99810.38;5037620;28;20038;-82
2023/10/26 01:36:11;;;;;;;0.10;0.10;;;;;;;11.73;77.83;99812.50;5013195;28;20042;-83
2023/10/26 01:38:38;;;;;;;0.10;0.10;;;;;;;11.65;77.59;99816.31;5020556;28;20105;-83
2023/10/26 01:41:05;;;;;;;0.45;0.45;;;;;;;11.57;78.10;99815.75;5012177;28;20026;-83
2023/10/26 01:43:31;;;;;;;0.30;0.30;;;;;;;11.53;78.24;99811.53;5016845;28;20037;-82
2023/10/26 01:45:57;;;;;;;0.20;0.20;;;;;;;11.45;77.62;99809.19;5040658;28;20096;-82
2023/10/26 01:48:23;;;;;;;0.10;0.10;;;;;;;11.41;77.54;99812.88;5054554;28;20077;-83
2023/10/26 01:50:50;;;;;;;0.10;0.10;;;;;;;11.35;77.63;99804.31;5022094;28;20481;-83
2023/10/26 01:53:16;;;;;;;0.10;0.10;;;;;;;11.27;77.60;99802.81;5012963;28;20030;-83
2023/10/26 01:55:42;;;;;;;0.10;0.10;;;;;;;11.20;77.65;99803.97;5010890;28;20030;-83
2023/10/26 01:58:08;;;;;;;0.20;0.20;;;;;;;11.15;77.10;99801.53;5028328;28;20023;-83
2023/10/26 02:00:34;;;;;;;0.10;0.10;;;;;;;11.10;76.95;99797.31;5012662;28;20033;-83
2023/10/26 02:03:01;;;;;;;0.40;0.40;;;;;;;11.03;77.58;99801.13;5012692;28;20069;-81
2023/10/26 02:05:27;;;;;;;0.10;0.10;;;;;;;10.99;77.41;99803.91;5028191;28;20055;-82
2023/10/26 02:07:53;;;;;;;0.10;0.10;;;;;;;10.95;76.89;99807.59;5066355;28;20031;-81
2023/10/26 02:10:21;;;;;;;0.10;0.10;;;;;;;10.91;77.32;99803.31;5006743;28;20026;-82
2023/10/26 02:12:47;;;;;;;0.73;0.73;;;;;;;10.87;77.22;99809.66;5048791;28;20394;-81
2023/10/26 02:15:13;;;;;;;0.40;0.40;;;;;;;10.83;76.86;99811.56;5007711;28;20034;-82
2023/10/26 02:17:39;;;;;;;0.10;0.10;;;;;;;10.83;77.34;99805.41;5003455;28;20058;-81
2023/10/26 02:20:06;;;;;;;0.10;0.10;;;;;;;10.81;77.64;99805.44;5013448;28;20026;-81
2023/10/26 02:22:32;;;;;;;0.10;0.10;;;;;;;10.78;77.48;99812.66;5010019;28;20042;-81
2023/10/26 02:24:58;;;;;;;0.10;0.10;;;;;;;10.75;76.99;99799.53;5002889;28;20126;-82
2023/10/26 02:27:24;;;;;;;0.10;0.10;;;;;;;10.73;77.01;99794.28;5009572;28;20026;-82
2023/10/26 02:29:50;;;;;;;1.48;0.85;;;;;;;10.70;77.31;99789.09;5007987;28;20117;-81
2023/10/26 02:32:16;;;;;;;0.10;0.10;;;;;;;10.71;77.10;99789.97;5013029;28;20117;-82
2023/10/26 02:34:42;;;;;;;0.10;0.10;;;;;;;10.74;77.36;99789.84;5009660;28;20389;-82
2023/10/26 02:37:09;;;;;;;0.20;0.20;;;;;;;10.74;77.37;99787.19;5016461;28;20120;-81
2023/10/26 02:39:35;;;;;;;0.30;0.30;;;;;;;10.71;77.01;99785.53;5015038;28;20029;-81
2023/10/26 02:42:01;;;;;;;1.20;0.73;;;;;;;10.73;76.76;99788.13;5023409;28;20030;-81
2023/10/26 02:44:27;;;;;;;0.10;0.10;;;;;;;10.70;76.93;99782.94;5012216;28;20137;-82
2023/10/26 02:46:53;;;;;;;0.30;0.30;;;;;;;10.69;76.94;99787.38;5048951;28;20071;-81
2023/10/26 02:49:19;;;;;;;0.10;0.10;;;;;;;10.58;77.56;99785.13;5005597;28;20523;-82
2023/10/26 02:51:45;;;;;;;0.10;0.10;;;;;;;10.59;77.36;99786.88;5013331;28;20052;-82
2023/10/26 02:54:11;;;;;;;0.10;0.10;;;;;;;10.50;77.72;99784.53;5014686;28;20026;-81
2023/10/26 02:56:38;;;;;;;1.40;1.15;;;;;;;10.48;77.93;99789.03;4999369;28;20035;-81
2023/10/26 02:59:04;;;;;;;0.20;0.20;;;;;;;10.46;77.86;99791.72;5017541;28;20030;-82
2023/10/26 03:01:34;;;;;;;0.10;0.10;;;;;;;10.59;77.58;99791.28;5015190;28;20036;-82
2023/10/26 03:04:02;;;;;;;0.15;0.15;;;;;;;10.59;77.51;99793.94;5011082;28;20037;-81
2023/10/26 03:06:28;;;;;;;0.10;0.10;;;;;;;10.59;77.63;99789.50;5011508;28;20090;-81
2023/10/26 03:08:54;;;;;;;0.20;0.20;;;;;;;10.55;78.03;99790.53;5005819;28;20041;-82
2023/10/26 03:11:20;;;;;;;0.10;0.10;;;;;;;10.60;77.39;99785.91;5013158;28;20044;-81
2023/10/26 03:13:46;;;;;;;0.10;0.10;;;;;;;10.62;77.54;99784.09;5008950;28;20038;-82
2023/10/26 03:16:12;;;;;;;0.10;0.10;;;;;;;10.55;78.26;99785.22;5008972;28;20506;-82
2023/10/26 03:18:39;;;;;;;0.63;0.63;;;;;;;10.53;77.99;99779.16;5008232;28;20050;-81
2023/10/26 03:21:05;;;;;;;0.30;0.30;;;;;;;10.55;78.25;99779.94;5010052;28;20098;-81
2023/10/26 03:23:31;;;;;;;0.10;0.10;;;;;;;10.56;78.35;99772.88;5005793;28;20513;-81
2023/10/26 03:25:57;;;;;;;0.10;0.10;;;;;;;10.61;78.39;99776.22;5008228;28;20060;-81
2023/10/26 03:28:23;;;;;;;0.10;0.10;;;;;;;10.65;77.78;99781.34;5008374;28;20037;-82
2023/10/26 03:30:49;;;;;;;0.45;0.40;;;;;;;10.65;77.69;99780.47;5012838;28;20030;-83
2023/10/26 03:33:15;;;;;;;0.10;0.10;;;;;;;10.64;77.54;99782.25;5012050;28;20030;-83
2023/10/26 03:35:41;;;;;;;0.15;0.15;;;;;;;10.46;77.75;99782.94;5006104;28;20068;-82
2023/10/26 03:38:08;;;;;;;0.20;0.20;;;;;;;10.42;77.17;99778.66;5009151;28;20045;-82
2023/10/26 03:40:34;;;;;;;0.03;0.03;;;;;;;10.33;77.51;99780.69;5009149;28;20038;-82
2023/10/26 03:43:00;;;;;;;0.10;0.10;;;;;;;10.32;77.79;99778.13;5022051;28;20033;-82
2023/10/26 03:45:28;;;;;;;0.10;0.10;;;;;;;10.32;77.93;99778.97;5014872;28;20038;-82
2023/10/26 03:47:54;;;;;;;0.68;0.68;;;;;;;10.31;77.92;99782.53;5004919;28;20084;-82
2023/10/26 03:50:21;;;;;;;0.13;0.13;;;;;;;10.32;78.14;99778.97;5016810;28;20040;-81
2023/10/26 03:52:47;;;;;;;0.10;0.10;;;;;;;10.34;78.39;99769.19;5047297;28;20385;-81
2023/10/26 03:55:13;;;;;;;0.10;0.10;;;;;;;10.37;78.06;99773.53;5013166;28;20026;-82
2023/10/26 03:57:39;;;;;;;0.10;0.10;;;;;;;10.40;78.12;99775.22;5008876;28;20026;-81
2023/10/26 04:00:06;;;;;;;0.25;0.25;;;;;;;10.45;78.58;99775.91;5005496;28;20040;-82
2023/10/26 04:02:32;;;;;;;0.10;0.10;;;;;;;10.45;78.16;99771.47;5008089;28;20034;-81
2023/10/26 04:04:58;;;;;;;0.10;0.10;;;;;;;10.48;78.17;99778.44;5009395;28;20027;-82
2023/10/26 04:07:24;;;;;;;0.10;0.10;;;;;;;10.50;78.87;99776.59;5015110;28;20034;-82
2023/10/26 04:09:51;;;;;;;0.10;0.10;;;;;;;10.64;78.37;99779.59;5012091;28;20038;-81
2023/10/26 04:12:17;;;;;;;0.20;0.20;;;;;;;10.67;78.01;99774.19;5049330;28;20045;-83
2023/10/26 04:14:43;;;;;;;0.10;0.10;;;;;;;10.73;78.12;99766.91;5008622;28;20045;-83
2023/10/26 04:17:12;;;;;;;0.10;0.10;;;;;;;10.78;78.02;99757.00;5009860;28;20033;-83
2023/10/26 04:19:38;;;;;;;0.10;0.10;;;;;;;10.83;78.25;99763.03;5000644;28;20114;-81
2023/10/26 04:22:05;;;;;;;0.20;0.20;;;;;;;10.86;78.51;99757.59;5014110;28;20053;-82
2023/10/26 04:24:32;;;;;;;0.10;0.10;;;;;;;10.89;78.36;99752.19;5000004;28;20033;-82
2023/10/26 04:26:59;;;;;;;0.15;0.15;;;;;;;10.96;78.45;99747.50;5010566;28;20031;-83
2023/10/26 04:29:25;;;;;;;0.10;0.10;;;;;;;10.98;78.81;99727.97;5012086;28;20044;-81
2023/10/26 04:31:51;;;;;;;0.10;0.10;;;;;;;11.00;78.71;99733.19;5012968;28;20527;-82
2023/10/26 04:34:18;;;;;;;0.10;0.10;;;;;;;11.00;78.68;99734.06;5004766;28;20437;-82
2023/10/26 04:36:44;;;;;;;0.20;0.20;;;;;;;11.00;78.59;99747.31;5008665;28;20051;-81
2023/10/26 04:39:10;;;;;;;0.20;0.20;;;;;;;11.03;78.65;99745.44;5015853;28;20018;-82
2023/10/26 04:41:36;;;;;;;0.10;0.10;;;;;;;11.04;78.68;99750.72;5013168;28;20037;-81
2023/10/26 04:44:05;;;;;;;0.10;0.10;;;;;;;11.08;78.65;99748.78;5020667;28;20769;-82
2023/10/26 04:46:31;;;;;;;0.30;0.30;;;;;;;11.09;78.67;99742.56;5017644;28;20071;-81
2023/10/26 04:48:57;;;;;;;0.10;0.10;;;;;;;11.06;78.74;99750.66;5011841;28;20079;-81
2023/10/26 04:51:23;;;;;;;0.10;0.10;;;;;;;11.07;79.20;99749.72;5011514;28;20029;-81
2023/10/26 04:53:50;;;;;;;0.10;0.10;;;;;;;11.17;78.62;99748.44;5006973;28;20034;-82
2023/10/26 04:56:17;;;;;;;0.20;0.20;;;;;;;11.18;78.72;99742.22;5008063;28;20027;-81
2023/10/26 04:58:43;;;;;;;0.10;0.10;;;;;;;11.16;79.15;99744.03;5010833;28;20057;-81
2023/10/26 05:01:10;;;;;;;0.20;0.20;;;;;;;11.19;78.70;99737.75;5015191;28;20408;-82
2023/10/26 05:03:37;;;;;;;0.10;0.10;;;;;;;11.22;78.41;99738.50;5017850;28;20480;-82
2023/10/26 05:06:04;;;;;;;0.10;0.10;;;;;;;11.25;78.71;99743.69;5012176;28;20053;-82
2023/10/26 05:08:33;;;;;;;0.10;0.10;;;;;;;11.27;78.71;99739.19;5016666;28;20091;-80
2023/10/26 05:10:59;;;;;;;0.10;0.10;;;;;;;11.29;78.28;99739.97;5027005;28;20026;-82
2023/10/26 05:13:26;;;;;;;0.10;0.10;;;;;;;11.28;78.52;99742.72;5019354;28;20034;-81
2023/10/26 05:15:52;;;;;;;0.55;0.55;;;;;;;11.30;78.28;99741.72;5005156;28;20030;-82
2023/10/26 05:18:18;;;;;;;0.10;0.10;;;;;;;11.31;78.30;99743.44;5033258;28;20049;-79
2023/10/26 05:20:49;;;;;;;0.10;0.10;;;;;;;11.37;78.31;99742.31;5015612;28;20120;-80
2023/10/26 05:23:15;;;;;;;0.10;0.10;;;;;;;11.36;78.38;99731.78;5008791;28;20548;-80
2023/10/26 05:25:41;;;;;;;0.30;0.30;;;;;;;11.41;78.96;99740.41;5015529;28;20132;-80
2023/10/26 05:28:07;;;;;;;0.28;0.28;;;;;;;11.36;78.83;99729.13;5006898;28;20038;-81
2023/10/26 05:30:34;;;;;;;0.10;0.10;;;;;;;11.36;78.86;99729.13;5009892;28;20052;-80
2023/10/26 05:33:00;;;;;;;0.20;0.20;;;;;;;11.36;79.19;99729.13;5016294;28;20029;-81
2023/10/26 05:35:26;;;;;;;0.10;0.10;;;;;;;11.36;78.98;99731.78;5005364;28;20058;-79
2023/10/26 05:37:52;;;;;;;0.10;0.10;;;;;;;11.36;78.89;99723.81;5012187;28;20026;-81
2023/10/26 05:40:18;;;;;;;0.10;0.10;;;;;;;11.36;79.02;99726.47;5005380;28;20116;-81
2023/10/26 05:42:44;;;;;;;0.10;0.10;;;;;;;11.39;79.09;99724.56;5014184;28;20031;-81
2023/10/26 05:45:11;;;;;;;2.08;0.80;;;;;;;11.37;78.85;99730.84;5043173;28;20034;-82
2023/10/26 05:47:37;;;;;;;0.70;0.65;;;;;;;11.39;78.92;99726.34;5023365;28;20427;-82
2023/10/26 05:50:04;;;;;;;0.17;0.17;;;;;;;11.40;78.90;99725.41;5003792;28;20041;-82
2023/10/26 05:52:30;;;;;;;0.38;0.38;;;;;;;11.41;79.15;99729.78;5010714;28;20034;-82
2023/10/26 05:54:56;;;;;;;0.88;0.85;;;;;;;11.45;79.33;99734.03;5008724;28;20034;-82
2023/10/26 05:57:23;;;;;;;0.30;0.30;;;;;;;11.46;78.94;99738.41;5006337;28;20109;-82
2023/10/26 05:59:49;;;;;;;0.10;0.10;;;;;;;11.49;79.33;99740.97;5006288;28;20088;-81
2023/10/26 06:02:15;;;;;;;1.17;0.90;;;;;;;11.48;79.17;99729.47;5003296;28;20480;-81
2023/10/26 06:04:41;;;;;;;0.10;0.10;;;;;;;11.53;79.19;99731.09;5011813;28;20035;-82
2023/10/26 06:07:07;;;;;;;0.10;0.10;;;;;;;11.51;79.14;99728.47;5020619;28;20044;-82
2023/10/26 06:09:33;;;;;;;0.10;0.10;;;;;;;11.51;79.49;99728.47;5013488;28;20034;-82
2023/10/26 06:11:59;;;;;;;0.32;0.32;;;;;;;11.54;79.66;99719.53;5013830;28;20022;-81
2023/10/26 06:14:25;;;;;;;0.10;0.10;;;;;;;11.54;79.48;99720.41;5005327;28;20030;-79
2023/10/26 06:16:51;;;;;;;0.20;0.20;;;;;;;11.52;78.80;99719.59;5020386;28;20056;-80
2023/10/26 06:19:17;;;;;;;0.20;0.20;;;;;;;11.47;79.45;99721.59;5001485;28;20026;-81
2023/10/26 06:21:43;;;;;;;0.10;0.10;;;;;;;11.44;78.59;99716.38;5039438;28;20042;-81
2023/10/26 06:24:09;;;;;;;0.22;0.22;;;;;;;11.45;79.42;99718.13;5009269;28;20443;-80
2023/10/26 06:26:36;;;;;;;0.10;0.10;;;;;;;11.44;78.67;99711.09;5012975;28;20532;-81
2023/10/26 06:29:02;;;;;;;0.10;0.10;;;;;;;11.45;78.86;99707.50;5012914;28;20488;-80
2023/10/26 06:31:28;;;;;;;0.20;0.20;;;;;;;11.45;79.30;99715.47;5004121;28;20072;-80
2023/10/26 06:33:54;;;;;;;5.15;1.38;;;;;;;11.46;79.07;99714.56;5006263;28;20031;-81
2023/10/26 06:36:20;;;;;;;0.30;0.30;;;;;;;11.46;79.01;99720.75;5003296;28;20056;-82
2023/10/26 06:38:46;;;;;;;0.25;0.25;;;;;;;11.49;79.37;99719.75;5005996;28;20027;-83
2023/10/26 06:41:12;;;;;;;0.10;0.10;;;;;;;11.46;79.56;99719.84;5002038;28;20040;-83
2023/10/26 06:43:38;;;;;;;0.10;0.10;;;;;;;11.49;79.96;99725.91;5009510;28;20075;-83
2023/10/26 06:46:05;;;;;;;0.10;0.10;;;;;;;11.49;79.15;99720.59;5011025;28;20427;-83
2023/10/26 06:48:31;;;;;;;0.28;0.28;;;;;;;11.52;79.85;99724.06;5007214;28;20087;-83
2023/10/26 06:51:00;;;;;;;0.63;0.63;;;;;;;11.55;79.89;99726.56;5011389;28;20493;-82
2023/10/26 06:53:27;;;;;;;0.10;0.10;;;;;;;11.54;79.83;99730.13;5025030;28;20506;-79
2023/10/26 06:55:53;;;;;;;0.15;0.15;;;;;;;11.56;79.83;99726.50;4997163;28;20030;-82
2023/10/26 06:58:19;;;;;;;0.35;0.35;;;;;;;11.56;79.26;99731.78;5003013;28;20480;-81
2023/10/26 07:00:46;;;;;;;0.52;0.30;;;;;;;11.59;79.52;99729.03;5007772;28;20029;-82
2023/10/26 07:03:12;;;;;;;3.85;0.88;;;;;;;11.61;79.55;99726.31;5003413;28;20087;-82
2023/10/26 07:05:38;;;;;;;0.68;0.68;;;;;;;11.63;79.62;99722.66;5006606;28;20067;-81
2023/10/26 07:08:04;;;;;;;0.20;0.20;;;;;;;11.65;79.20;99728.78;5005069;28;20038;-80
2023/10/26 07:10:31;;;;;;;0.10;0.10;;;;;;;11.63;79.28;99727.13;5010462;28;20047;-81
2023/10/26 07:12:57;;;;;;;0.43;0.43;;;;;;;11.67;79.81;99726.03;5008822;28;20038;-82
2023/10/26 07:15:26;;;;;;;0.10;0.10;;;;;;;11.65;79.72;99728.78;5005965;28;20041;-80
2023/10/26 07:17:53;;;;;;;0.32;0.32;;;;;;;11.65;79.46;99728.78;5006786;28;20026;-80
2023/10/26 07:20:19;;;;;;;0.10;0.10;;;;;;;11.69;79.99;99733.94;5002032;28;20064;-81
2023/10/26 07:22:45;;;;;;;1.08;1.08;;;;;;;11.71;79.24;99729.44;5009578;28;20062;-82
2023/10/26 07:25:11;;;;;;;0.10;0.10;;;;;;;11.72;79.54;99731.16;5005136;28;20030;-81
2023/10/26 07:27:38;;;;;;;0.10;0.10;;;;;;;11.68;79.69;99734.88;5005374;28;20048;-82
2023/10/26 07:30:05;;;;;;;0.20;0.20;;;;;;;11.69;79.35;99734.81;5014134;28;20029;-83
2023/10/26 07:32:31;;;;;;;2.08;1.10;;;;;;;11.70;79.06;99736.53;5009969;28;20096;-82
2023/10/26 07:34:58;;;;;;;0.28;0.28;;;;;;;11.74;79.69;99735.47;5008906;28;20439;-82
2023/10/26 07:37:25;;;;;;;0.10;0.10;;;;;;;11.75;79.29;99737.22;5012309;28;20014;-83
2023/10/26 07:39:51;;;;;;;0.77;0.77;;;;;;;11.77;79.19;99735.34;5012857;28;20050;-80
2023/10/26 07:42:17;;;;;;;0.10;0.10;;;;;;;11.78;78.94;99736.22;5007244;28;20038;-81
2023/10/26 07:44:43;;;;;;;0.10;0.10;;;;;;;11.77;79.03;99739.78;5010502;28;20517;-80
2023/10/26 07:47:10;;;;;;;0.40;0.40;;;;;;;11.78;79.77;99736.22;5014684;28;20037;-82
2023/10/26 07:49:36;;;;;;;0.17;0.17;;;;;;;11.81;79.89;99728.09;5013545;28;20040;-81
2023/10/26 07:52:02;;;;;;;0.40;0.40;;;;;;;11.85;79.30;99732.38;5013546;28;20462;-81
2023/10/26 07:54:28;;;;;;;2.83;0.95;;;;;;;11.85;79.14;99735.03;5015584;28;20060;-81
2023/10/26 07:56:54;;;;;;;1.17;1.17;;;;;;;11.88;79.21;99736.69;5019672;28;20040;-81
2023/10/26 07:59:20;;;;;;;0.10;0.10;;;;;;;11.91;79.14;99736.53;5004758;28;20105;-82
2023/10/26 08:01:47;;;;;;;0.65;0.65;;;;;;;11.95;79.33;99743.44;5004899;28;20041;-81
2023/10/26 08:04:14;;;;;;;0.28;0.28;;;;;;;12.02;79.79;99742.28;5002911;28;20053;-81
2023/10/26 08:06:40;;;;;;;0.75;0.75;;;;;;;12.08;79.69;99733.19;5006216;28;20113;-82
2023/10/26 08:09:06;;;;;;;0.20;0.20;;;;;;;12.09;79.40;99740.22;5004516;28;20034;-82
2023/10/26 08:11:32;;;;;;;0.10;0.10;;;;;;;12.11;79.81;99747.19;5001901;28;20045;-81
2023/10/26 08:14:00;;;;;;;1.00;1.00;;;;;;;12.08;79.16;99749.13;5003091;28;20045;-82
2023/10/26 08:16:26;;;;;;;6.22;1.65;;;;;;;12.08;79.68;99746.47;5013391;28;20154;-81
2023/10/26 08:18:52;;;;;;;0.10;0.10;;;;;;;12.07;79.50;99744.72;5020858;28;20515;-82
2023/10/26 08:21:19;;;;;;;0.85;0.75;;;;;;;12.10;79.71;99741.94;5019179;28;20048;-82
2023/10/26 08:23:46;;;;;;;0.10;0.10;;;;;;;12.08;79.18;99743.81;4999209;28;20038;-83
2023/10/26 08:26:12;;;;;;;0.10;0.10;;;;;;;12.13;79.02;99742.66;5011865;28;20064;-83
2023/10/26 08:28:40;;;;;;;0.20;0.20;;;;;;;12.13;78.96;99745.31;5001632;28;20054;-83
2023/10/26 08:31:06;;;;;;;0.10;0.10;;;;;;;12.20;79.38;99737.06;5017627;28;20042;-84
2023/10/26 08:33:34;;;;;;;0.80;0.80;;;;;;;12.20;79.14;99735.31;5002630;28;20037;-84
2023/10/26 08:36:00;;;;;;;0.17;0.17;;;;;;;12.22;79.40;99738.72;5004532;28;20030;-84
2023/10/26 08:38:26;;;;;;;0.73;0.73;;;;;;;12.24;78.82;99744.00;5007328;28;20033;-85
2023/10/26 08:40:54;;;;;;;0.20;0.20;;;;;;;12.33;79.11;99737.41;5010819;28;20027;-86
2023/10/26 08:43:21;;;;;;;0.10;0.10;;;;;;;12.32;78.95;99738.34;5008360;28;20079;-85
2023/10/26 08:45:52;;;;;;;0.30;0.30;;;;;;;12.40;79.34;99738.84;5018254;28;20052;-84
2023/10/26 08:48:19;;;;;;;0.75;0.75;;;;;;;12.41;79.36;99729.94;4992978;28;20030;-84
2023/10/26 08:50:47;;;;;;;0.10;0.10;;;;;;;12.42;78.74;99732.53;5000394;28;20030;-84
2023/10/26 08:53:14;;;;;;;0.45;0.45;;;;;;;12.42;78.55;99740.50;5004502;28;20038;-84
2023/10/26 08:55:41;;;;;;;0.45;0.45;;;;;;;12.49;79.45;99741.09;5005719;28;20037;-84
2023/10/26 08:58:08;;;;;;;0.10;0.10;;;;;;;12.50;78.73;99747.25;4999908;28;20036;-84
2023/10/26 09:00:38;;;;;;;0.10;0.10;;;;;;;12.52;78.89;99745.41;5007764;28;20034;-82
2023/10/26 09:03:04;;;;;;;0.10;0.10;;;;;;;12.53;79.03;99755.94;5008291;28;20034;-84
2023/10/26 09:05:31;;;;;;;0.47;0.47;;;;;;;12.53;78.19;99755.94;5005103;28;20030;-84
2023/10/26 09:07:57;;;;;;;0.85;0.85;;;;;;;12.57;78.69;99751.34;5010129;28;20489;-83
2023/10/26 09:10:32;;;;;;;4.15;2.00;;;;;;;12.58;77.60;99747.78;5002933;28;20400;-82
2023/10/26 09:13:06;;;;;;;1.02;0.98;;;;;;;12.51;78.71;99746.31;5012540;28;20033;-81
2023/10/26 09:15:47;;;;;;;0.20;0.15;;;;;;;12.58;77.98;99738.00;4999553;28;20095;-81
2023/10/26 09:18:15;;;;;;;1.17;1.17;;;;;;;12.54;78.51;99747.03;5002889;28;20067;-81
2023/10/26 09:20:43;;;;;;;0.80;0.80;;;;;;;12.62;79.08;99734.28;5001894;28;20442;-81
2023/10/26 09:23:30;;;;;;;1.27;0.63;;;;;;;12.76;78.63;99727.44;5005880;28;20029;-81
2023/10/26 09:25:58;;;;;;;1.17;1.00;;;;;;;12.72;78.31;99728.53;5001348;28;20055;-82
2023/10/26 09:28:24;;;;;;;0.43;0.43;;;;;;;12.77;77.93;99726.50;5012542;28;20033;-81
2023/10/26 09:30:55;;;;;;;0.40;0.40;;;;;;;12.84;78.35;99727.94;5003367;28;20049;-84
2023/10/26 09:33:24;;;;;;;0.10;0.10;;;;;;;12.99;78.79;99715.72;5007356;28;20035;-83
2023/10/26 09:35:50;;;;;;;4.00;2.50;;;;;;;13.07;78.85;99710.03;5003738;28;20382;-83
2023/10/26 09:38:17;;;;;;;0.55;0.55;;;;;;;13.17;78.51;99713.09;5020380;28;20482;-84
2023/10/26 09:40:44;;;;;;;0.43;0.43;;;;;;;13.17;77.69;99708.66;5005552;28;20119;-83
2023/10/26 09:43:10;;;;;;;0.25;0.25;;;;;;;13.26;77.90;99712.66;5020825;28;20028;-83
2023/10/26 09:45:37;;;;;;;1.65;0.60;;;;;;;13.36;77.97;99707.75;5041048;28;20086;-84
2023/10/26 09:48:05;;;;;;;0.17;0.17;;;;;;;13.39;77.52;99691.66;5057677;28;20072;-84
2023/10/26 09:50:38;;;;;;;0.80;0.80;;;;;;;13.35;77.36;99700.72;5022268;28;20045;-84
2023/10/26 09:53:04;;;;;;;0.10;0.10;;;;;;;13.37;77.14;99698.81;5056327;28;20030;-83
2023/10/26 09:55:31;;;;;;;0.25;0.25;;;;;;;13.40;77.21;99698.72;5025788;28;20060;-82
2023/10/26 09:58:04;;;;;;;1.10;1.10;;;;;;;13.47;76.84;99694.81;5027234;28;20113;-83
2023/10/26 10:00:33;;;;;;;0.52;0.52;;;;;;;13.53;77.66;99689.19;5014061;28;20121;-84
2023/10/26 10:03:16;;;;;;;2.15;1.95;;;;;;;13.74;77.55;99684.56;5053273;28;20455;-82
2023/10/26 10:05:46;;;;;;;0.10;0.10;;;;;;;13.77;77.23;99686.19;5023128;28;20041;-83
2023/10/26 10:08:13;;;;;;;0.15;0.15;;;;;;;13.94;77.72;99684.44;5022318;28;20026;-83
2023/10/26 10:11:13;;;;;;;0.10;0.10;;;;;;;14.18;77.81;99685.81;5007245;28;20045;-83
2023/10/26 10:13:39;;;;;;;1.23;1.23;;;;;;;14.17;76.87;99691.22;4994481;28;20076;-82
2023/10/26 10:16:28;;;;;;;0.10;0.10;;;;;;;14.18;76.07;99695.59;5002300;28;20075;-83
2023/10/26 10:19:15;;;;;;;0.22;0.22;;;;;;;14.19;75.14;99708.84;5004230;28;20488;-83
2023/10/26 10:21:41;;;;;;;0.05;0.05;;;;;;;14.07;75.36;99699.69;5003278;28;20065;-83
2023/10/26 10:24:07;;;;;;;0.80;0.80;;;;;;;14.03;75.35;99706.13;5004740;28;20030;-83
2023/10/26 10:27:09;;;;;;;0.13;0.13;;;;;;;14.08;75.19;99708.53;5026756;28;20038;-83
2023/10/26 10:29:36;;;;;;;0.10;0.10;;;;;;;14.07;75.64;99706.81;5006436;28;20065;-83
2023/10/26 10:32:02;;;;;;;0.10;0.10;;;;;;;14.14;75.91;99702.88;4999771;28;20401;-81
2023/10/26 10:34:33;;;;;;;0.40;0.40;;;;;;;14.29;76.37;99703.84;5014213;28;20038;-81
2023/10/26 10:37:12;;;;;;;0.65;0.50;;;;;;;14.46;76.58;99694.97;5009369;28;20072;-80
2023/10/26 10:39:39;;;;;;;2.08;1.40;;;;;;;14.51;76.34;99684.91;5003405;28;20034;-83
2023/10/26 10:42:10;;;;;;;0.52;0.52;;;;;;;14.54;75.66;99682.09;5007768;28;20034;-84
2023/10/26 10:44:37;;;;;;;2.78;1.15;;;;;;;14.49;75.58;99680.59;5011861;28;20042;-85
2023/10/26 10:47:03;;;;;;;5.57;2.47;;;;;;;14.44;75.56;99680.84;5012794;28;20492;-83
2023/10/26 10:49:29;;;;;;;1.50;1.40;;;;;;;14.49;74.94;99677.94;5007376;28;20033;-82
2023/10/26 10:51:55;;;;;;;0.10;0.10;;;;;;;14.55;75.67;99674.94;5018892;28;20051;-83
2023/10/26 10:54:22;;;;;;;0.32;0.32;;;;;;;14.54;74.36;99660.75;5013167;28;20034;-83
2023/10/26 10:56:49;;;;;;;0.20;0.20;;;;;;;14.60;75.10;99664.88;5002140;28;20031;-81
2023/10/26 11:04:53;;;;;;;0.35;0.35;;;;;;;15.15;73.00;99655.59;5107054;27;20386;-82
2023/10/26 11:10:03;;;;;;;0.90;0.90;;;;;;;15.37;74.20;99643.66;5085060;27;20408;-83
2023/10/26 11:12:29;;;;;;;1.85;0.93;;;;;;;15.48;73.35;99651.03;5083102;28;20085;-82
2023/10/26 11:14:56;;;;;;;6.25;1.67;;;;;;;15.60;72.92;99652.09;5077332;28;20016;-83
2023/10/26 11:17:24;;;;;;;2.63;0.82;;;;;;;15.60;71.90;99649.41;5082191;28;20446;-82
2023/10/26 11:19:51;;;;;;;5.35;1.15;;;;;;;15.51;71.28;99657.03;5075166;28;20031;-84
2023/10/26 11:22:18;;;;;;;2.13;1.88;;;;;;;15.47;71.33;99660.81;5083667;28;20029;-83
2023/10/26 11:24:45;;;;;;;0.03;0.03;;;;;;;15.26;69.59;99659.44;5076733;28;20056;-83
2023/10/26 11:30:08;;;;;;;0.20;0.20;;;;;;;15.03;70.57;99651.81;5110502;27;20721;-81
2023/10/26 11:32:35;;;;;;;0.15;0.15;;;;;;;14.85;72.10;99653.75;5099741;27;20081;-81
2023/10/26 11:37:52;;;;;;;0.98;0.98;;;;;;;14.65;71.92;99662.00;5092668;27;20416;-82
2023/10/26 11:40:27;;;;;;;0.30;0.30;;;;;;;14.58;71.09;99658.78;5062968;28;20029;-80
2023/10/26 11:45:48;;;;;;;0.08;0.08;;;;;;;14.64;71.40;99654.91;5093767;27;20392;-81
2023/10/26 11:48:27;;;;;;;0.10;0.10;;;;;;;14.81;73.19;99649.50;5081699;28;20063;-81
2023/10/26 11:50:53;;;;;;;0.10;0.10;;;;;;;14.83;72.53;99654.78;5073962;28;20395;-81